Time;durP1;ratioP1;P1;durP2;ratioP2;P2;SDS_P1;SDS_P2;PMS_P1;PMS_P2;Temp;Humidity;BMP_temperature;BMP_pressure;BME280_temperature;BME280_humidity;BME280_pressure;Samples;Min_cycle;Max_cycle;Signal;HPM_P1;HPM_P2
2023/05/16 00:02:08;;;;;;;20.08;3.97;;;;;;;;;;6152892;23;20068;-89
2023/05/16 00:04:53;;;;;;;20.92;4.68;;;;;;;;;;6132191;23;20016;-89
2023/05/16 00:07:37;;;;;;;14.75;3.05;;;;;;;;;;6153784;23;20100;-89
2023/05/16 00:10:22;;;;;;;13.82;2.47;;;;;;;;;;6131244;23;20024;-89
2023/05/16 00:13:08;;;;;;;19.40;3.65;;;;;;;;;;6154068;23;20460;-89
2023/05/16 00:15:56;;;;;;;20.95;3.22;;;;;;;;;;6152754;23;20107;-89
2023/05/16 00:18:44;;;;;;;19.35;3.70;;;;;;;;;;6154056;23;20032;-91
2023/05/16 00:21:30;;;;;;;14.57;2.70;;;;;;;;;;6153362;23;20459;-89
2023/05/16 00:24:15;;;;;;;19.95;4.05;;;;;;;;;;6131436;23;20016;-87
2023/05/16 00:27:00;;;;;;;17.55;3.05;;;;;;;;;;6152974;23;20021;-90
2023/05/16 00:29:45;;;;;;;14.73;2.28;;;;;;;;;;6131846;23;20025;-90
2023/05/16 00:32:29;;;;;;;11.63;2.22;;;;;;;;;;6151981;23;20032;-89
2023/05/16 00:35:14;;;;;;;21.77;3.83;;;;;;;;;;6153750;23;20084;-89
2023/05/16 00:37:58;;;;;;;16.48;3.00;;;;;;;;;;6131893;23;20024;-90
2023/05/16 00:40:43;;;;;;;21.25;4.60;;;;;;;;;;6154191;23;20633;-90
2023/05/16 00:43:28;;;;;;;22.02;2.72;;;;;;;;;;6151932;23;20032;-90
2023/05/16 00:46:12;;;;;;;13.25;2.85;;;;;;;;;;6152680;23;20405;-90
2023/05/16 00:48:57;;;;;;;25.15;3.28;;;;;;;;;;6153751;23;20047;-89
2023/05/16 00:51:42;;;;;;;12.15;3.72;;;;;;;;;;6153485;23;20012;-89
2023/05/16 00:54:28;;;;;;;17.40;2.65;;;;;;;;;;6151961;23;20343;-89
2023/05/16 00:57:13;;;;;;;16.60;2.97;;;;;;;;;;6152348;23;20036;-89
2023/05/16 00:59:58;;;;;;;14.77;3.28;;;;;;;;;;6153772;23;20017;-89
2023/05/16 01:02:43;;;;;;;13.75;2.83;;;;;;;;;;6153521;23;20336;-89
2023/05/16 01:05:28;;;;;;;12.90;2.72;;;;;;;;;;6151963;23;20101;-89
2023/05/16 01:08:13;;;;;;;24.75;2.97;;;;;;;;;;6153799;23;20017;-88
2023/05/16 01:11:00;;;;;;;14.63;2.45;;;;;;;;;;6153609;23;20060;-89
2023/05/16 01:14:08;;;;;;;17.60;3.25;;;;;;;;;;6153045;23;20020;-89
2023/05/16 01:16:59;;;;;;;20.10;3.83;;;;;;;;;;6153680;23;20036;-88
2023/05/16 01:19:51;;;;;;;14.40;2.47;;;;;;;;;;6153010;23;20020;-89
2023/05/16 01:22:41;;;;;;;19.20;2.67;;;;;;;;;;6131268;23;20098;-90
2023/05/16 01:25:32;;;;;;;8.90;1.90;;;;;;;;;;6132868;23;20063;-89
2023/05/16 01:28:16;;;;;;;22.38;2.28;;;;;;;;;;6133484;23;20037;-90
2023/05/16 01:31:02;;;;;;;13.90;2.10;;;;;;;;;;6133566;23;20080;-89
2023/05/16 01:33:47;;;;;;;15.57;2.60;;;;;;;;;;6133319;23;20451;-89
2023/05/16 01:37:04;;;;;;;20.90;2.20;;;;;;;;;;6132786;23;20025;-89
2023/05/16 01:39:56;;;;;;;9.93;2.00;;;;;;;;;;6093991;23;20016;-89
2023/05/16 01:42:43;;;;;;;12.35;2.03;;;;;;;;;;6132827;23;20016;-89
2023/05/16 01:45:32;;;;;;;14.05;2.20;;;;;;;;;;6154699;23;20554;-89
2023/05/16 01:48:20;;;;;;;9.75;2.03;;;;;;;;;;6155589;23;20109;-89
2023/05/16 01:51:05;;;;;;;14.48;2.47;;;;;;;;;;6155407;23;20025;-89
2023/05/16 01:53:52;;;;;;;14.02;2.78;;;;;;;;;;6154965;23;20391;-89
2023/05/16 01:56:37;;;;;;;15.38;2.65;;;;;;;;;;6154765;23;20087;-89
2023/05/16 01:59:23;;;;;;;17.95;2.42;;;;;;;;;;6133364;23;20044;-89
2023/05/16 02:02:07;;;;;;;13.82;2.45;;;;;;;;;;6133198;23;20140;-89
2023/05/16 02:04:52;;;;;;;17.30;2.40;;;;;;;;;;6155111;23;20021;-89
2023/05/16 02:07:36;;;;;;;13.10;2.67;;;;;;;;;;6132383;23;20021;-89
2023/05/16 02:10:21;;;;;;;21.13;3.88;;;;;;;;;;6154073;23;20016;-89
2023/05/16 02:13:06;;;;;;;13.05;2.20;;;;;;;;;;6154016;23;20064;-89
2023/05/16 02:15:51;;;;;;;11.23;2.10;;;;;;;;;;6154710;23;20041;-89
2023/05/16 02:18:36;;;;;;;26.13;3.33;;;;;;;;;;6153332;23;20345;-88
2023/05/16 02:21:20;;;;;;;9.98;1.90;;;;;;;;;;6132876;23;20343;-89
2023/05/16 02:24:05;;;;;;;10.93;2.80;;;;;;;;;;6153831;23;20448;-89
2023/05/16 02:26:50;;;;;;;14.50;2.67;;;;;;;;;;6153277;23;20016;-89
2023/05/16 02:29:34;;;;;;;14.10;2.30;;;;;;;;;;6154429;23;20461;-89
2023/05/16 02:32:19;;;;;;;9.38;2.03;;;;;;;;;;6155402;23;20602;-90
2023/05/16 02:35:04;;;;;;;15.00;2.58;;;;;;;;;;6153384;23;20475;-90
2023/05/16 02:37:49;;;;;;;13.55;2.63;;;;;;;;;;6154355;23;20068;-90
2023/05/16 02:40:34;;;;;;;18.38;1.80;;;;;;;;;;6153142;23;20068;-89
2023/05/16 02:43:19;;;;;;;13.95;2.33;;;;;;;;;;6154916;23;20020;-89
2023/05/16 02:46:26;;;;;;;10.00;1.77;;;7.60;99.90;;;;;;6153768;23;20021;-89
2023/05/16 02:49:11;;;;;;;9.27;2.03;;;;;;;;;;6132733;23;20067;-89
2023/05/16 02:51:56;;;;;;;9.77;2.13;;;;;;;;;;6152830;23;20032;-89
2023/05/16 02:54:41;;;;;;;12.65;2.17;;;;;;;;;;6154139;23;20068;-89
2023/05/16 02:57:25;;;;;;;14.15;1.92;;;;;;;;;;6132712;23;20076;-89
2023/05/16 03:00:10;;;;;;;14.38;3.00;;;;;;;;;;6154859;23;20016;-89
2023/05/16 03:02:55;;;;;;;19.38;3.08;;;;;;;;;;6152911;23;20794;-89
2023/05/16 03:05:41;;;;;;;11.32;2.88;;;;;;;;;;6152671;23;20072;-89
2023/05/16 03:08:25;;;;;;;15.15;3.97;;;;;;;;;;6132649;23;20044;-88
2023/05/16 03:11:10;;;;;;;16.63;2.40;;;;;;;;;;6154752;23;20064;-89
2023/05/16 03:13:54;;;;;;;13.82;2.95;;;;;;;;;;6153839;23;20125;-90
2023/05/16 03:16:42;;;;;;;12.27;2.88;;;;;;;;;;6153942;23;20037;-90
2023/05/16 03:19:27;;;;;;;15.90;2.35;;;;;;;;;;6154536;23;20020;-89
2023/05/16 03:22:12;;;;;;;15.82;2.95;;;;;;;;;;6154746;23;20020;-89
2023/05/16 03:24:57;;;;;;;13.77;2.90;;;;;;;;;;6154324;23;20589;-89
2023/05/16 03:27:41;;;;;;;19.77;2.95;;;;;;;;;;6131641;23;20032;-89
2023/05/16 03:30:26;;;;;;;11.93;2.40;;;;;;;;;;6132433;23;20060;-89
2023/05/16 03:33:10;;;;;;;13.30;2.70;;;;;;;;;;6132284;23;20090;-89
2023/05/16 03:35:55;;;;;;;11.95;2.72;;;;;;;;;;6131706;23;20032;-89
2023/05/16 03:38:39;;;;;;;14.38;2.35;;;;;;;;;;6152333;23;20396;-88
2023/05/16 03:41:25;;;;;;;21.52;4.47;;;;;;;;;;6132329;23;20037;-89
2023/05/16 03:44:09;;;;;;;12.63;2.20;;;;;;;;;;6154361;23;20056;-88
2023/05/16 03:46:54;;;;;;;16.58;3.28;;;;;;;;;;6153274;23;20065;-89
2023/05/16 03:49:39;;;;;;;17.15;2.85;;;;;;;;;;6154156;23;20332;-88
2023/05/16 03:52:25;;;;;;;13.38;2.58;;;;;;;;;;6153027;23;20016;-89
2023/05/16 03:55:09;;;;;;;16.23;2.53;;;;;;;;;;6152649;23;20103;-88
2023/05/16 03:57:54;;;;;;;13.73;2.45;;;;;;;;;;6131430;23;20017;-89
2023/05/16 04:00:38;;;;;;;16.02;2.83;;;;;;;;;;6132015;23;20117;-89
2023/05/16 04:03:27;;;;;;;12.82;3.75;;;;;;;;;;6131983;23;20036;-90
2023/05/16 04:06:11;;;;;;;21.73;4.05;;;;;;;;;;6154179;23;20024;-89
2023/05/16 04:08:56;;;;;;;10.30;2.22;;;;;;;;;;6131379;23;20267;-89
2023/05/16 04:11:41;;;;;;;15.05;2.35;;;;;;;;;;6154071;23;20021;-90
2023/05/16 04:14:25;;;;;;;14.48;2.83;;;;;;;;;;6152490;23;20429;-89
2023/05/16 04:17:11;;;;;;;14.63;2.72;;;;;;;;;;6154199;23;20048;-89
2023/05/16 04:19:56;;;;;;;10.52;2.10;;;;;;;;;;6153360;23;20340;-89
2023/05/16 04:22:41;;;;;;;12.20;2.65;;;;;;;;;;6153943;23;20024;-89
2023/05/16 04:25:25;;;;;;;14.48;3.53;;;;;;;;;;6154044;23;20024;-89
2023/05/16 04:28:10;;;;;;;14.25;2.58;;;;;;;;;;6153757;23;20020;-89
2023/05/16 04:30:55;;;;;;;11.23;2.35;;;;;;;;;;6131036;23;20697;-89
2023/05/16 04:33:40;;;;;;;13.43;2.60;;;;;;;;;;6153952;23;20096;-89
2023/05/16 04:36:28;;;;;;;14.57;2.95;;;;;;;;;;6153871;23;20016;-89
2023/05/16 04:39:13;;;;;;;11.35;2.08;;;;;;;;;;6153443;23;20048;-89
2023/05/16 04:41:58;;;;;;;10.93;2.47;;;;;;;;;;6152783;23;20017;-90
2023/05/16 04:44:42;;;;;;;12.68;2.25;;;;;;;;;;6131785;23;20109;-89
2023/05/16 04:47:27;;;;;;;12.60;2.28;;;;;;;;;;6131616;23;20044;-89
2023/05/16 04:50:11;;;;;;;14.35;2.55;;;;;;;;;;6131323;23;20044;-88
2023/05/16 04:52:56;;;;;;;14.60;3.05;;;;;;;;;;6151881;23;20040;-89
2023/05/16 04:55:41;;;;;;;10.38;2.80;;;;;;;;;;6153535;23;20041;-89
2023/05/16 04:58:26;;;;;;;10.80;2.22;;;;;;;;;;6156487;23;20020;-88
2023/05/16 05:01:10;;;;;;;12.32;2.38;;;;;;;;;;6156315;23;20060;-89
2023/05/16 05:03:55;;;;;;;8.95;1.98;;;;;;;;;;6156322;23;20016;-89
2023/05/16 05:06:40;;;;;;;11.40;1.75;;;;;;;;;;6155612;23;20458;-89
2023/05/16 05:09:24;;;;;;;12.93;1.80;;;;;;;;;;6155759;23;20020;-90
2023/05/16 05:12:10;;;;;;;14.93;2.38;;;;;;;;;;6156056;23;20320;-91
2023/05/16 05:14:54;;;;;;;9.27;2.15;;;;;;;;;;6155822;23;20094;-91
2023/05/16 05:17:39;;;;;;;12.45;2.45;;;;;;;;;;6134758;23;20103;-92
2023/05/16 05:20:23;;;;;;;15.15;2.15;;;;;;;;;;6156800;23;20040;-92
2023/05/16 05:23:08;;;;;;;14.50;2.75;;;;;;;;;;6134153;23;20020;-90
2023/05/16 05:25:53;;;;;;;15.40;3.53;;;;;;;;;;6156212;23;20021;-88
2023/05/16 05:28:38;;;;;;;10.98;2.03;;;;;;;;;;6155630;23;20064;-90
2023/05/16 05:31:23;;;;;;;16.38;3.00;;;;;;;;;;6155984;23;20451;-91
2023/05/16 05:34:08;;;;;;;13.25;2.72;;;;;;;;;;6155191;23;20060;-88
2023/05/16 05:36:52;;;;;;;10.30;2.05;;;;;;;;;;6134588;23;20020;-88
2023/05/16 05:39:37;;;;;;;16.23;3.38;;;;;;;;;;6156829;23;20021;-89
2023/05/16 05:42:21;;;;;;;11.93;2.53;;;;;;;;;;6155114;23;20033;-88
2023/05/16 05:45:06;;;;;;;11.02;2.20;;;;;;;;;;6155798;23;20064;-88
2023/05/16 05:47:51;;;;;;;11.10;2.13;;;;;;;;;;6134890;23;20016;-89
2023/05/16 05:50:36;;;;;;;12.73;2.50;;;;;;;;;;6159154;23;20032;-87
2023/05/16 05:53:21;;;;;;;13.63;2.20;;;;;;;;;;6158266;23;20020;-87
2023/05/16 05:56:06;;;;;;;10.93;1.92;;;;;;;;;;6135482;23;20052;-87
2023/05/16 05:58:51;;;;;;;8.98;2.22;;;;;;;;;;6153407;23;20021;-88
2023/05/16 06:01:36;;;;;;;15.15;3.42;;;;;;;;;;6155697;23;20072;-88
2023/05/16 06:04:21;;;;;;;14.55;2.10;;;;;;;;;;6154008;23;20105;-88
2023/05/16 06:07:05;;;;;;;7.28;2.30;;;;;;;;;;6155697;23;20072;-88
2023/05/16 06:09:50;;;;;;;10.48;2.80;;;;;;;;;;6154243;23;20344;-88
2023/05/16 06:12:35;;;;;;;14.95;2.47;;;;;;;;;;6132843;23;20052;-88
2023/05/16 06:15:20;;;;;;;8.77;2.47;;;;;;;;;;6154446;23;20044;-89
2023/05/16 06:18:05;;;;;;;11.43;2.15;;;;;;;;;;6154252;23;20017;-87
2023/05/16 06:20:49;;;;;;;12.48;2.42;;;;;;;;;;6155086;23;20124;-89
2023/05/16 06:23:34;;;;;;;12.45;2.38;;;;;;;;;;6130689;23;20012;-89
2023/05/16 06:26:19;;;;;;;9.25;1.85;;;;;;;;;;6130061;23;20065;-87
2023/05/16 06:29:03;;;;;;;10.45;1.67;;;;;;;;;;6152373;23;20016;-88
2023/05/16 06:31:48;;;;;;;9.10;1.63;;;;;;;;;;6152762;23;20347;-88
2023/05/16 06:34:33;;;;;;;12.98;2.15;;;;;;;;;;6130556;23;20024;-88
2023/05/16 06:37:18;;;;;;;9.65;1.85;;;;;;;;;;6152878;23;20024;-88
2023/05/16 06:40:02;;;;;;;7.93;1.63;;;;;;;;;;6154562;23;20495;-87
2023/05/16 06:42:47;;;;;;;16.30;1.92;;;;;;;;;;6132174;23;20060;-88
2023/05/16 06:45:31;;;;;;;13.52;2.17;;;;;;;;;;6154862;23;20100;-88
2023/05/16 06:48:18;;;;;;;12.80;2.63;;;;;;;;;;6154298;23;20384;-87
2023/05/16 06:51:02;;;;;;;9.40;1.60;;;;;;;;;;6131945;23;20016;-87
2023/05/16 06:53:47;;;;;;;6.50;1.70;;;;;;;;;;6132750;23;20025;-88
2023/05/16 06:56:31;;;;;;;5.60;1.70;;;;;;;;;;6132569;23;20024;-88
2023/05/16 06:59:16;;;;;;;6.70;1.45;;;;;;;;;;6132157;23;20094;-88
2023/05/16 07:02:01;;;;;;;6.38;1.55;;;;;;;;;;6132359;23;20101;-88
2023/05/16 07:04:46;;;;;;;5.88;1.35;;;;;;;;;;6132715;23;20017;-88
2023/05/16 07:07:31;;;;;;;6.60;1.50;;;;;;;;;;6132594;23;20505;-88
2023/05/16 07:10:16;;;;;;;7.32;1.70;;;;;;;;;;6154060;23;20012;-89
2023/05/16 07:13:01;;;;;;;4.45;1.20;;;;;;;;;;6154492;23;20048;-88
2023/05/16 07:15:46;;;;;;;7.05;1.38;;;;;;;;;;6153301;23;20028;-89
2023/05/16 07:18:30;;;;;;;4.30;1.15;;;;;;;;;;6154647;23;20092;-89
2023/05/16 07:21:15;;;;;;;4.68;1.20;;;;;;;;;;6127003;23;20019;-87
2023/05/16 07:24:00;;;;;;;9.73;1.52;;;;;;;;;;6151988;23;20450;-88
2023/05/16 07:26:45;;;;;;;7.38;1.98;;;;;;;;;;6152381;23;20105;-89
2023/05/16 07:29:29;;;;;;;10.65;1.60;;;;;;;;;;6128986;23;20065;-88
2023/05/16 07:32:15;;;;;;;9.30;2.40;;;;;;;;;;6151815;23;20016;-88
2023/05/16 07:34:59;;;;;;;11.88;2.38;;;;;;;;;;6151405;23;20056;-88
2023/05/16 07:37:44;;;;;;;9.55;2.33;;;;;;;;;;6154440;23;20025;-88
2023/05/16 07:40:29;;;;;;;7.50;1.50;;;;;;;;;;6131599;23;20448;-88
2023/05/16 07:43:14;;;;;;;8.07;2.22;;;;;;;;;;6131752;23;20017;-88
2023/05/16 07:45:58;;;;;;;10.07;1.75;;;;;;;;;;6154413;23;20024;-88
2023/05/16 07:48:43;;;;;;;8.90;2.80;;;;;;;;;;6154206;23;20100;-88
2023/05/16 07:51:27;;;;;;;7.88;1.65;;;;;;;;;;6131626;23;20846;-92
2023/05/16 07:54:12;;;;;;;8.63;1.73;;;;;;;;;;6153755;23;20068;-91
2023/05/16 07:56:56;;;;;;;10.68;1.70;;;;;;;;;;6154161;23;20028;-88
2023/05/16 07:59:41;;;;;;;7.45;1.38;;;;;;;;;;6131957;23;20451;-89
2023/05/16 08:02:29;;;;;;;7.43;1.98;;;;;;;;;;6131509;23;20083;-88
2023/05/16 08:05:16;;;;;;;5.40;1.60;;;;;;;;;;6153648;23;20032;-89
2023/05/16 08:08:01;;;;;;;8.00;1.55;;;;;;;;;;6154178;23;20020;-89
2023/05/16 08:10:46;;;;;;;10.60;1.90;;;;;;;;;;6152817;23;20033;-90
2023/05/16 08:13:30;;;;;;;8.15;1.55;;;;;;;;;;6153440;23;20925;-89
2023/05/16 08:16:15;;;;;;;8.13;1.75;;;;;;;;;;6153280;23;20075;-90
2023/05/16 08:19:00;;;;;;;16.30;2.08;;;;;;;;;;6153949;23;20063;-90
2023/05/16 08:21:45;;;;;;;14.40;1.98;;;;;;;;;;6152883;23;20510;-90
2023/05/16 08:24:29;;;;;;;10.90;1.92;;;;;;;;;;6153403;23;20063;-91
2023/05/16 08:27:14;;;;;;;7.32;1.95;;;;;;;;;;6131581;23;20396;-88
2023/05/16 08:29:59;;;;;;;13.77;1.85;;;;;;;;;;6154122;23;20051;-91
2023/05/16 08:32:43;;;;;;;8.50;1.55;;;;;;;;;;6131726;23;20121;-91
2023/05/16 08:35:28;;;;;;;11.25;2.65;;;;;;;;;;6153325;23;20056;-93
2023/05/16 08:38:12;;;;;;;8.40;1.80;;;;;;;;;;6131853;23;20017;-90
2023/05/16 08:40:57;;;;;;;8.45;1.70;;;;;;;;;;6153888;23;20097;-90
2023/05/16 08:43:42;;;;;;;8.57;2.03;;;;;;;;;;6131732;23;20020;-89
2023/05/16 08:46:28;;;;;;;9.30;2.17;;;;;;;;;;6153334;23;20020;-90
2023/05/16 08:49:13;;;;;;;4.85;1.42;;;;;;;;;;6132027;23;20016;-90
2023/05/16 08:51:58;;;;;;;6.47;2.05;;;;;;;;;;6153715;23;20093;-89
2023/05/16 08:54:43;;;;;;;9.05;1.70;;;;;;;;;;6152521;23;20165;-91
2023/05/16 08:57:29;;;;;;;7.38;1.73;;;;;;;;;;6130960;23;20520;-91
2023/05/16 09:00:18;;;;;;;13.55;1.80;;;;;;;;;;6131829;23;20333;-91
2023/05/16 09:03:02;;;;;;;11.95;1.65;;;;;;;;;;6152793;23;20021;-90
2023/05/16 09:05:47;;;;;;;10.38;2.05;;;;;;;;;;6131649;23;20348;-90
2023/05/16 09:08:32;;;;;;;6.85;1.45;;;;;;;;;;6131183;23;20017;-90
2023/05/16 09:11:16;;;;;;;8.13;1.67;;;;;;;;;;6153793;23;20048;-90
2023/05/16 09:14:01;;;;;;;6.07;1.65;;;;;;;;;;6153303;23;20020;-89
2023/05/16 09:17:02;;;;;;;5.82;1.45;;;;;;;;;;6131737;23;20762;-91
2023/05/16 09:19:51;;;;;;;7.78;1.80;;;;;;;;;;6153803;23;20055;-91
2023/05/16 09:22:36;;;;;;;5.43;1.20;;;;;;;;;;6153044;23;20052;-92
2023/05/16 09:25:25;;;;;;;9.50;1.98;;;;;;;;;;6131142;23;20024;-90
2023/05/16 09:28:10;;;;;;;6.13;1.60;;;;;;;;;;6153978;23;20340;-90
2023/05/16 09:30:58;;;;;;;7.63;1.60;;;;;;;;;;6131542;23;20015;-91
2023/05/16 09:33:43;;;;;;;12.60;1.60;;;;;;;;;;6153254;23;20448;-91
2023/05/16 09:36:28;;;;;;;12.23;1.77;;;;;;;;;;6151733;23;20028;-91
2023/05/16 09:39:15;;;;;;;9.07;1.52;;;;;;;;;;6152524;23;20137;-91
2023/05/16 09:42:00;;;;;;;6.13;1.77;;;;;;;;;;6131487;23;20016;-92
2023/05/16 09:44:49;;;;;;;7.93;2.08;;;;;;;;;;6153045;23;20071;-90
2023/05/16 09:47:34;;;;;;;5.40;1.45;;;;;;;;;;6153897;23;20020;-91
2023/05/16 09:50:19;;;;;;;4.85;1.23;;;;;;;;;;6133364;23;20510;-92
2023/05/16 09:53:05;;;;;;;7.75;1.60;;;;;;;;;;6154383;23;20521;-92
2023/05/16 09:55:58;;;;;;;8.45;1.50;;;;;;;;;;6133378;23;20072;-91
2023/05/16 09:58:45;;;;;;;7.88;1.70;;;;;;;;;;6132860;23;20064;-91
2023/05/16 10:01:29;;;;;;;6.80;1.55;;;;;;;;;;6133153;23;20498;-91
2023/05/16 10:04:15;;;;;;;7.20;1.30;;;;;;;;;;6133331;23;20336;-90
2023/05/16 10:07:02;;;;;;;11.15;1.60;;;;;;;;;;6133319;23;20394;-90
2023/05/16 10:09:47;;;;;;;8.30;1.30;;;;;;;;;;6132730;23;20059;-92
2023/05/16 10:12:32;;;;;;;8.82;1.60;;;;;;;;;;6153861;23;20048;-90
2023/05/16 10:15:17;;;;;;;7.50;1.13;;;;;;;;;;6155699;23;20064;-92
2023/05/16 10:18:03;;;;;;;8.80;1.40;;;;;;;;;;6155307;23;20020;-93
2023/05/16 10:20:49;;;;;;;9.02;1.60;;;;;;;;;;6132350;23;20083;-90
2023/05/16 10:23:35;;;;;;;8.02;1.73;;;;;;;;;;6154725;23;20017;-91
2023/05/16 10:26:20;;;;;;;10.10;1.20;;;;;;;;;;6133178;23;20076;-91
2023/05/16 10:29:06;;;;;;;9.38;1.58;;;;;;;;;;6156273;23;20016;-93
2023/05/16 10:31:54;;;;;;;7.63;1.58;;;;;;;;;;6132842;23;20052;-92
2023/05/16 10:34:39;;;;;;;4.57;1.23;;;;;;;;;;6155074;23;20093;-94
2023/05/16 10:37:24;;;;;;;5.93;1.58;;;;;;;;;;6155278;23;20037;-93
2023/05/16 10:40:09;;;;;;;11.55;1.45;;;;;;;;;;6155185;23;20380;-93
2023/05/16 10:42:55;;;;;;;8.55;1.42;;;;;;;;;;6155343;23;20028;-92
2023/05/16 10:45:43;;;;;;;7.10;1.58;;;;;;;;;;6132460;23;20450;-92
2023/05/16 10:48:28;;;;;;;9.45;1.88;;;;;;;;;;6154308;23;20105;-90
2023/05/16 10:51:22;;;;;;;8.05;1.80;;;;;;;;;;6132988;23;20011;-92
2023/05/16 10:54:14;;;;;;;6.18;1.70;;;;;;;;;;6154911;23;20067;-92
2023/05/16 10:57:05;;;;;;;4.40;1.80;;;;;;;;;;6154696;23;20348;-92
2023/05/16 10:59:52;;;;;;;3.38;1.17;;;;;;;;;;6154504;23;20150;-92
2023/05/16 11:02:40;;;;;;;5.10;1.30;;;;;;;;;;6154938;23;20033;-91
2023/05/16 11:05:25;;;;;;;7.43;1.48;;;;;;;;;;6155546;23;20043;-92
2023/05/16 11:08:11;;;;;;;4.80;1.63;;;;;;;;;;6153679;23;20486;-92
2023/05/16 11:11:14;;;;;;;7.88;1.40;;;;;;;;;;6154485;23;20089;-91
2023/05/16 11:14:02;;;;;;;4.80;1.48;;;;;;;;;;6154576;23;20013;-93
2023/05/16 11:16:51;;;;;;;5.07;1.30;;;;;;;;;;6132352;23;20076;-90
2023/05/16 11:19:41;;;;;;;6.32;1.50;;;;;;;;;;6154258;23;20491;-92
2023/05/16 11:22:28;;;;;;;7.60;1.35;;;;;;;;;;6132894;23;20016;-90
2023/05/16 11:25:13;;;;;;;10.05;1.60;;;;;;;;;;6132939;23;20025;-91
2023/05/16 11:27:59;;;;;;;10.27;1.67;;;;;;;;;;6152917;23;20454;-91
2023/05/16 11:30:45;;;;;;;8.50;1.52;;;;;;;;;;6154061;23;20079;-92
2023/05/16 11:33:34;;;;;;;7.93;1.88;;;;;;;;;;6154580;23;20016;-92
2023/05/16 11:36:18;;;;;;;6.13;1.63;;;;;;;;;;6154678;23;20446;-91
2023/05/16 11:39:09;;;;;;;5.28;2.00;;;;;;;;;;6155069;23;20140;-91
2023/05/16 11:41:54;;;;;;;9.77;2.10;;;;;;;;;;6153780;23;20020;-90
2023/05/16 11:44:39;;;;;;;12.05;2.63;;;;;;;;;;6152543;23;20045;-90
2023/05/16 11:47:26;;;;;;;6.70;2.03;;;;;;;;;;6132320;23;20020;-90
2023/05/16 11:50:11;;;;;;;10.02;1.88;;;;;;;;;;6153183;23;20036;-90
2023/05/16 11:52:56;;;;;;;9.93;2.00;;;;;;;;;;6153780;23;20591;-89
2023/05/16 11:55:41;;;;;;;9.93;2.05;;;;;;;;;;6153560;23;20450;-91
2023/05/16 11:58:26;;;;;;;6.30;2.00;;;;;;;;;;6154296;23;20056;-92
2023/05/16 12:01:11;;;;;;;7.32;1.67;;;;;;;;;;6154412;23;20016;-90
2023/05/16 12:03:56;;;;;;;5.93;1.80;;;;;;;;;;6153600;23;20092;-90
2023/05/16 12:06:44;;;;;;;10.75;2.00;;;;;;;;;;6131336;23;20060;-91
2023/05/16 12:09:29;;;;;;;9.77;1.92;;;;;;;;;;6154077;23;20083;-89
2023/05/16 12:12:15;;;;;;;12.57;2.22;;;;;;;;;;6131941;23;20028;-92
2023/05/16 12:15:00;;;;;;;6.80;2.35;;;;;;;;;;6153621;23;20032;-90
2023/05/16 12:17:45;;;;;;;6.53;1.60;;;;;;;;;;6131388;23;20025;-91
2023/05/16 12:20:29;;;;;;;7.95;2.15;;;;;;;;;;6132033;23;20052;-91
2023/05/16 12:23:14;;;;;;;12.93;2.30;;;;;;;;;;6134243;23;20020;-89
2023/05/16 12:26:06;;;;;;;9.95;2.70;;;;;;;;;;6132724;23;20091;-91
2023/05/16 12:28:56;;;;;;;8.88;2.42;;;;;;;;;;6132498;23;20072;-89
2023/05/16 12:31:41;;;;;;;13.48;2.85;;;;;;;;;;6155013;23;20515;-88
2023/05/16 12:34:28;;;;;;;8.50;2.00;;;;;;;;;;6133206;23;20015;-91
2023/05/16 12:37:12;;;;;;;7.40;2.10;;;;;;;;;;6156597;23;20024;-90
2023/05/16 12:40:00;;;;;;;7.30;2.05;;;;;;;;;;6132203;23;20363;-88
2023/05/16 12:42:45;;;;;;;7.63;2.53;;;;;;;;;;6131348;23;20020;-89
2023/05/16 12:45:29;;;;;;;11.48;2.67;;;;;;;;;;6153901;23;20343;-90
2023/05/16 12:48:14;;;;;;;10.85;2.78;;;;;;;;;;6153950;23;20016;-90
2023/05/16 12:51:11;;;;;;;7.72;3.17;;;;;;;;;;6153326;23;20056;-90
2023/05/16 12:53:55;;;;;;;8.52;2.03;;;;;;;;;;6153189;23;20013;-90
2023/05/16 12:56:43;;;;;;;10.98;2.35;;;;;;;;;;6152456;23;20025;-88
2023/05/16 12:59:30;;;;;;;11.50;3.08;;;;;;;;;;6153750;23;20029;-88
2023/05/16 13:02:15;;;;;;;11.25;2.30;;;;;;;;;;6152498;23;20445;-88
2023/05/16 13:05:00;;;;;;;8.30;2.60;;;;;;;;;;6151934;23;20455;-88
2023/05/16 13:07:44;;;;;;;8.82;2.83;;;;;;;;;;6152216;23;20017;-88
2023/05/16 13:10:29;;;;;;;7.72;2.40;;;;;;;;;;6153724;23;20132;-89
2023/05/16 13:13:14;;;;;;;12.07;2.78;;;;;;;;;;6153897;23;20032;-88
2023/05/16 13:15:59;;;;;;;8.43;2.67;;;;;;;;;;6152675;23;20356;-88
2023/05/16 13:18:43;;;;;;;9.05;2.30;;;;;;;;;;6154927;23;20365;-89
2023/05/16 13:21:30;;;;;;;7.75;2.33;;;;;;;;;;6133708;23;20094;-88
2023/05/16 13:24:15;;;;;;;11.93;2.80;;;;;;;;;;6155711;23;20017;-89
2023/05/16 13:27:00;;;;;;;10.27;2.80;;;;;;;;;;6155029;23;20036;-89
2023/05/16 13:29:44;;;;;;;11.10;2.78;;;;;;;;;;6133492;23;20047;-89
2023/05/16 13:32:29;;;;;;;8.65;3.00;;;;;;;;;;6155634;23;20015;-89
2023/05/16 13:35:13;;;;;;;11.02;3.00;;;;;;;;;;6155501;23;20025;-88
2023/05/16 13:37:58;;;;;;;9.98;3.22;;;;;;;;;;6153706;23;20414;-87
2023/05/16 13:40:43;;;;;;;8.93;2.45;;;;;;;;;;6133504;23;20032;-88
2023/05/16 13:43:28;;;;;;;12.77;2.70;;;;;;;;;;6155465;23;20087;-89
2023/05/16 13:46:13;;;;;;;8.10;3.00;;;;;;;;;;6132882;23;20020;-89
2023/05/16 13:48:58;;;;;;;8.85;2.58;;;;;;;;;;6153479;23;20523;-89
2023/05/16 13:51:43;;;;;;;8.70;2.13;;;;;;;;;;6154190;23;20071;-89
2023/05/16 13:54:27;;;;;;;6.00;2.47;;;;;;;;;;6133422;23;20032;-89
2023/05/16 13:57:12;;;;;;;8.02;3.15;;;;;;;;;;6132445;23;20071;-90
2023/05/16 13:59:57;;;;;;;8.40;2.80;;;;;;;;;;6153524;23;20465;-89
2023/05/16 14:02:42;;;;;;;5.78;2.28;;;;;;;;;;6155389;23;20021;-90
2023/05/16 14:05:27;;;;;;;5.68;2.40;;;;;;;;;;6155309;23;20024;-89
2023/05/16 14:08:13;;;;;;;8.02;2.50;;;;;;;;;;6153443;23;20020;-88
2023/05/16 14:10:57;;;;;;;8.27;2.53;;;;;;;;;;6154657;23;20024;-88
2023/05/16 14:13:41;;;;;;;13.68;2.90;;;;;;;;;;6146575;23;20495;-90
2023/05/16 14:16:26;;;;;;;9.77;2.92;;;;;;;;;;6152743;23;20539;-94
2023/05/16 14:19:14;;;;;;;9.43;2.67;;;;;;;;;;6152196;23;20020;-93
2023/05/16 14:21:58;;;;;;;10.90;3.90;;;;;;;;;;6153508;23;20095;-92
2023/05/16 14:24:43;;;;;;;7.88;2.28;;;;;;;;;;6153455;23;20016;-95
2023/05/16 14:27:27;;;;;;;6.97;2.88;;;;;;;;;;6159417;23;20274;-93
2023/05/16 14:30:12;;;;;;;5.43;2.25;;;;;;;;;;6129530;23;20016;-90
2023/05/16 14:32:58;;;;;;;7.25;2.50;;;;;;;;;;6151990;23;20023;-92
2023/05/16 14:35:42;;;;;;;7.35;2.72;;;;;;;;;;6152976;23;20517;-94
2023/05/16 14:38:27;;;;;;;6.47;2.53;;;;;;;;;;6152426;23;20388;-92
2023/05/16 14:41:12;;;;;;;6.75;2.72;;;;;;;;;;6151747;23;20020;-93
2023/05/16 14:43:56;;;;;;;10.85;3.10;;;;;;;;;;6151470;23;20017;-91
2023/05/16 14:46:41;;;;;;;15.68;3.38;;;;;;;;;;6158809;23;20044;-95
2023/05/16 14:49:25;;;;;;;9.63;2.92;;;;;;;;;;6155127;23;20070;-91
2023/05/16 14:52:12;;;;;;;6.55;2.80;;;;;;;;;;6109368;23;20017;-91
2023/05/16 14:54:57;;;;;;;6.57;2.83;;;;;;;;;;6108334;23;20030;-89
2023/05/16 14:57:42;;;;;;;8.38;2.70;;;;;;;;;;6104637;23;20021;-91
2023/05/16 15:00:27;;;;;;;9.95;2.58;;;;;;;;;;6135772;23;20072;-94
2023/05/16 15:03:12;;;;;;;8.77;2.70;;;;;;;;;;6135361;23;20033;-93
2023/05/16 15:05:56;;;;;;;7.93;3.15;;;;;;;;;;6111474;23;20024;-89
2023/05/16 15:08:41;;;;;;;8.27;2.42;;;;;;;;;;6103286;23;20092;-93
2023/05/16 15:11:26;;;;;;;11.02;3.08;;;;;;;;;;6103592;23;20021;-93
2023/05/16 15:14:10;;;;;;;11.50;3.58;;;;;;;;;;6124834;23;20021;-93
2023/05/16 15:16:55;;;;;;;9.05;2.92;;;;;;;;;;6103393;23;20017;-94
2023/05/16 15:19:40;;;;;;;10.85;2.88;;;;;;;;;;6103042;23;20032;-93
2023/05/16 15:22:24;;;;;;;9.07;2.65;;;;;;;;;;6103291;23;20453;-94
2023/05/16 15:25:09;;;;;;;7.47;2.97;;;;;;;;;;6101620;23;20120;-94
2023/05/16 15:27:54;;;;;;;10.73;2.50;;;;;;;;;;6103431;23;20021;-92
2023/05/16 15:30:39;;;;;;;9.43;2.22;;;;;;;;;;6103417;23;20016;-95
2023/05/16 15:33:26;;;;;;;9.45;1.92;;;;;;;;;;6124618;23;20012;-94
2023/05/16 15:36:11;;;;;;;9.18;2.42;;;;;;;;;;6124483;23;20020;-94
2023/05/16 15:38:55;;;;;;;11.48;2.00;;;;;;;;;;6125388;23;20052;-93
2023/05/16 15:41:40;;;;;;;10.02;1.95;;;;;;;;;;6103371;23;20340;-92
2023/05/16 15:44:24;;;;;;;6.32;2.05;;;;;;;;;;6102801;23;20033;-92
2023/05/16 15:47:09;;;;;;;9.82;1.92;;;;;;;;;;6125034;23;20045;-92
2023/05/16 15:49:57;;;;;;;7.35;1.95;;;;;;;;;;6118064;23;20109;-90
2023/05/16 15:52:41;;;;;;;5.88;1.85;;;;;;;;;;6126143;23;20020;-93
2023/05/16 15:55:26;;;;;;;6.47;1.77;;;;;;;;;;6122906;23;20105;-93
2023/05/16 15:58:10;;;;;;;7.72;1.88;;;;;;;;;;6122903;23;20153;-92
2023/05/16 16:00:55;;;;;;;5.90;1.65;;;;;;;;;;6124747;23;20448;-94
2023/05/16 16:03:40;;;;;;;7.03;2.20;;;;;;;;;;6121945;23;20082;-91
2023/05/16 16:06:24;;;;;;;4.20;1.75;;;;;;;;;;6121888;23;20088;-89
2023/05/16 16:09:10;;;;;;;4.03;1.85;;;;;;;;;;6120202;23;20029;-92
2023/05/16 16:11:55;;;;;;;7.22;2.15;;;;;;;;;;6123608;23;20020;-92
2023/05/16 16:14:40;;;;;;;6.22;1.75;;;;;;;;;;6124495;23;20021;-90
2023/05/16 16:17:25;;;;;;;4.88;1.70;;;;;;;;;;6123971;23;20028;-90
2023/05/16 16:20:09;;;;;;;4.65;2.05;;;;;;;;;;6122635;23;20024;-90
2023/05/16 16:22:54;;;;;;;5.88;2.00;;;;;;;;;;6123155;23;20069;-91
2023/05/16 16:25:39;;;;;;;5.13;1.88;;;;;;;;;;6124602;23;20061;-91